createdAt,value
2022-12-27T00:00:54.096Z,101452.50
2022-12-27T00:03:21.837Z,101451.75
2022-12-27T00:05:49.740Z,101449.50
2022-12-27T00:08:18.799Z,101462.97
2022-12-27T00:10:46.454Z,101469.69
2022-12-27T00:13:14.093Z,101431.50
2022-12-27T00:15:41.817Z,101466.81
2022-12-27T00:18:09.500Z,101465.47
2022-12-27T00:20:37.184Z,101452.38
2022-12-27T00:23:04.907Z,101456.50
2022-12-27T00:25:33.975Z,101468.31
2022-12-27T00:28:01.612Z,101475.53
2022-12-27T00:30:29.299Z,101470.13
2022-12-27T00:32:56.961Z,101467.19
2022-12-27T00:35:24.685Z,101458.63
2022-12-27T00:37:52.383Z,101467.38
2022-12-27T00:40:20.216Z,101467.09
2022-12-27T00:42:49.277Z,101467.19
2022-12-27T00:45:17.012Z,101466.06
2022-12-27T00:47:44.690Z,101480.91
2022-12-27T00:50:12.388Z,101472.28
2022-12-27T00:52:40.145Z,101495.94
2022-12-27T00:55:09.098Z,101489.41
2022-12-27T00:57:36.774Z,101484.25
2022-12-27T01:00:10.312Z,101478.59
2022-12-27T01:02:38.436Z,101494.19
2022-12-27T01:05:07.291Z,101492.91
2022-12-27T01:07:35.183Z,101415.34
2022-12-27T01:10:02.866Z,101500.72
2022-12-27T01:12:30.678Z,101496.66
2022-12-27T01:14:58.374Z,101501.66
2022-12-27T01:17:27.478Z,101504.72
2022-12-27T01:19:55.185Z,101503.41
2022-12-27T01:22:23.032Z,101506.91
2022-12-27T01:24:50.761Z,101511.28
2022-12-27T01:27:18.623Z,101508.78
2022-12-27T01:29:46.349Z,101513.09
2022-12-27T01:32:14.128Z,101504.25
2022-12-27T01:34:43.240Z,101512.09
2022-12-27T01:37:10.932Z,101501.47
2022-12-27T01:39:38.637Z,101421.59
2022-12-27T01:42:32.701Z,101514.59
2022-12-27T01:45:00.599Z,101511.53
2022-12-27T01:47:35.482Z,101510.75
2022-12-27T01:50:16.780Z,101513.28
2022-12-27T01:52:50.775Z,101508.22
2022-12-27T01:55:26.304Z,101526.13
2022-12-27T01:57:58.984Z,101532.16
2022-12-27T02:00:26.792Z,101531.34
2022-12-27T02:02:54.669Z,101540.84
2022-12-27T02:05:26.039Z,101547.19
2022-12-27T02:08:15.507Z,101545.47
2022-12-27T02:10:44.547Z,101546.13
2022-12-27T02:13:13.414Z,101548.16
2022-12-27T02:15:41.156Z,101545.47
2022-12-27T02:18:08.981Z,101543.53
2022-12-27T02:20:58.229Z,101535.22
2022-12-27T02:24:02.041Z,101543.91
2022-12-27T02:26:50.248Z,101538.91
2022-12-27T02:29:36.870Z,101527.69
2022-12-27T02:32:09.497Z,101534.09
2022-12-27T02:34:53.094Z,101545.59
2022-12-27T02:37:23.089Z,101539.13
2022-12-27T02:39:52.547Z,101548.19
2022-12-27T02:42:38.842Z,101537.59
2022-12-27T02:45:37.058Z,101533.41
2022-12-27T02:48:28.835Z,101535.34
2022-12-27T02:51:27.649Z,101539.38
2022-12-27T02:54:07.226Z,101547.19
2022-12-27T02:57:02.395Z,101521.91
2022-12-27T03:00:03.896Z,101544.72
2022-12-27T03:02:59.882Z,101498.84
2022-12-27T03:05:37.284Z,101550.81
2022-12-27T03:08:10.421Z,101556.03
2022-12-27T03:11:04.638Z,101554.75
2022-12-27T03:13:59.701Z,101547.13
2022-12-27T03:16:33.477Z,101550.88
2022-12-27T03:19:10.027Z,101545.38
2022-12-27T03:21:58.495Z,101550.03
2022-12-27T03:24:49.127Z,101557.53
2022-12-27T03:27:22.372Z,101551.66
2022-12-27T03:30:11.073Z,101554.06
2022-12-27T03:33:04.489Z,101560.06
2022-12-27T03:35:40.385Z,101552.56
2022-12-27T03:38:09.368Z,101550.72
2022-12-27T03:41:02.022Z,101546.03
2022-12-27T03:43:30.692Z,101555.19
2022-12-27T03:46:23.335Z,101554.78
2022-12-27T03:49:04.354Z,101554.53
2022-12-27T03:51:38.735Z,101553.25
2022-12-27T03:54:10.269Z,101549.16
2022-12-27T03:56:38.937Z,101552.13
2022-12-27T03:59:07.453Z,101551.25
2022-12-27T04:01:35.229Z,101561.75
2022-12-27T04:04:03.035Z,101553.44
2022-12-27T04:06:30.836Z,101573.34
2022-12-27T04:09:17.372Z,101565.34
2022-12-27T04:12:02.683Z,101580.59
2022-12-27T04:14:48.112Z,101575.91
2022-12-27T04:17:33.358Z,101577.03
2022-12-27T04:20:18.724Z,101585.84
2022-12-27T04:23:04.167Z,101564.78
2022-12-27T04:25:50.810Z,101565.03
2022-12-27T04:28:36.161Z,101555.38
2022-12-27T04:31:21.433Z,101555.38
2022-12-27T04:34:06.591Z,101557.25
2022-12-27T04:36:34.254Z,101558.41
2022-12-27T04:39:01.968Z,101550.66
2022-12-27T04:41:48.951Z,101563.25
2022-12-27T04:44:34.278Z,101557.84
2022-12-27T04:47:19.720Z,101562.16
2022-12-27T04:50:05.097Z,101565.22
2022-12-27T04:52:52.071Z,101583.06
2022-12-27T04:55:22.419Z,101570.44
2022-12-27T04:57:52.921Z,101569.19
2022-12-27T05:00:39.785Z,101573.75
2022-12-27T05:03:10.274Z,101579.38
2022-12-27T05:05:39.228Z,101586.97
2022-12-27T05:08:25.437Z,101590.75
2022-12-27T05:11:10.809Z,101591.22
2022-12-27T05:13:57.237Z,101585.31
2022-12-27T05:16:24.922Z,101590.50
2022-12-27T05:18:53.969Z,101584.69
2022-12-27T05:21:21.756Z,101601.03
2022-12-27T05:24:06.822Z,101589.03
2022-12-27T05:26:35.526Z,101597.59
2022-12-27T05:29:04.585Z,101600.03
2022-12-27T05:31:33.102Z,101601.63
2022-12-27T05:34:00.957Z,101602.03
2022-12-27T05:36:28.826Z,101551.56
2022-12-27T05:38:56.494Z,101614.72
2022-12-27T05:41:24.201Z,101602.66
2022-12-27T05:43:52.027Z,101605.75
2022-12-27T05:46:22.883Z,101615.19
2022-12-27T05:48:51.757Z,101613.47
2022-12-27T05:51:21.998Z,101611.44
2022-12-27T05:53:50.428Z,101627.19
2022-12-27T05:56:20.755Z,101630.59
2022-12-27T05:58:48.738Z,101636.94
2022-12-27T06:01:18.679Z,101625.72
2022-12-27T06:03:47.807Z,101628.28
2022-12-27T06:06:15.624Z,101615.25
2022-12-27T06:08:43.319Z,101629.97
2022-12-27T06:11:13.617Z,101631.69
2022-12-27T06:13:43.107Z,101630.53
2022-12-27T06:16:13.283Z,101627.09
2022-12-27T06:18:42.228Z,101641.66
2022-12-27T06:21:13.510Z,101654.50
2022-12-27T06:23:44.630Z,101649.81
2022-12-27T06:26:13.906Z,101651.41
2022-12-27T06:28:41.605Z,101661.44
2022-12-27T06:31:09.338Z,101670.00
2022-12-27T06:33:37.024Z,101664.19
2022-12-27T06:36:07.362Z,101670.03
2022-12-27T06:38:36.671Z,101673.53
2022-12-27T06:41:05.051Z,101674.38
2022-12-27T06:43:32.746Z,101687.59
2022-12-27T06:46:02.766Z,101694.22
2022-12-27T06:48:31.080Z,101689.25
2022-12-27T06:50:58.838Z,101688.91
2022-12-27T06:53:26.553Z,101685.88
2022-12-27T06:55:55.582Z,101702.00
2022-12-27T06:58:23.250Z,101697.94
2022-12-27T07:00:51.292Z,101706.44
2022-12-27T07:03:19.119Z,101703.44
2022-12-27T07:05:46.955Z,101679.97
2022-12-27T07:08:14.642Z,101713.53
2022-12-27T07:10:42.481Z,101718.28
2022-12-27T07:13:11.480Z,101726.25
2022-12-27T07:15:39.829Z,101718.56
2022-12-27T07:18:07.495Z,101718.03
2022-12-27T07:20:35.399Z,101722.09
2022-12-27T07:23:03.253Z,101721.25
2022-12-27T07:25:30.946Z,101725.84
2022-12-27T07:27:58.621Z,101721.41
2022-12-27T07:30:29.470Z,101728.25
2022-12-27T07:32:57.267Z,101737.84
2022-12-27T07:35:24.943Z,101737.06
2022-12-27T07:37:52.930Z,101745.53
2022-12-27T07:40:20.595Z,101718.31
2022-12-27T07:42:48.350Z,101764.13
2022-12-27T07:45:16.081Z,101707.88
2022-12-27T07:47:45.193Z,101779.31
2022-12-27T07:50:12.968Z,101791.50
2022-12-27T07:52:40.694Z,101782.63
2022-12-27T07:55:08.887Z,101791.28
2022-12-27T07:57:36.617Z,101803.19
2022-12-27T08:00:05.837Z,101808.31
2022-12-27T08:02:33.708Z,101806.41
2022-12-27T08:05:02.815Z,101763.28
2022-12-27T08:07:30.630Z,101812.19
2022-12-27T08:09:58.364Z,101817.94
2022-12-27T08:12:26.170Z,101813.66
2022-12-27T08:14:53.902Z,101827.19
2022-12-27T08:17:25.156Z,101816.91
2022-12-27T08:19:53.323Z,101819.13
2022-12-27T08:22:23.683Z,101818.25
2022-12-27T08:24:51.592Z,101798.16
2022-12-27T08:27:23.394Z,101821.41
2022-12-27T08:29:51.418Z,101822.44
2022-12-27T08:32:19.202Z,101822.91
2022-12-27T08:34:46.907Z,101841.25
2022-12-27T08:37:15.835Z,101853.13
2022-12-27T08:39:44.945Z,101830.31
2022-12-27T08:42:14.026Z,101835.78
2022-12-27T08:44:41.723Z,101831.06
2022-12-27T08:47:09.616Z,101848.78
2022-12-27T08:49:37.326Z,101841.28
2022-12-27T08:52:05.674Z,101839.09
2022-12-27T08:54:33.368Z,101854.16
2022-12-27T08:57:02.537Z,101860.84
2022-12-27T08:59:30.522Z,101846.59
2022-12-27T09:01:58.381Z,101848.78
2022-12-27T09:04:26.165Z,101855.69
2022-12-27T09:06:53.914Z,101850.31
2022-12-27T09:09:21.613Z,101854.84
2022-12-27T09:11:49.291Z,101858.09
2022-12-27T09:14:18.548Z,101860.06
2022-12-27T09:16:46.236Z,101860.50
2022-12-27T09:19:13.972Z,101865.09
2022-12-27T09:21:42.777Z,101874.59
2022-12-27T09:24:11.622Z,101887.59
2022-12-27T09:26:39.829Z,101885.97
2022-12-27T09:29:07.927Z,101884.97
2022-12-27T09:31:37.046Z,101878.00
2022-12-27T09:34:04.891Z,101886.53
2022-12-27T09:36:32.688Z,101887.97
2022-12-27T09:39:00.801Z,101905.03
2022-12-27T09:44:40.473Z,101891.47
2022-12-27T09:47:14.128Z,101905.44
2022-12-27T09:49:46.514Z,101902.16
2022-12-27T09:52:19.099Z,101908.06
2022-12-27T09:55:01.053Z,101898.50
2022-12-27T09:57:37.397Z,101911.47
2022-12-27T10:00:08.482Z,101897.59
2022-12-27T10:02:37.743Z,101893.75
2022-12-27T10:05:20.173Z,101898.19
2022-12-27T10:07:59.272Z,101900.06
2022-12-27T10:10:38.276Z,101908.69
2022-12-27T10:13:20.395Z,101921.47
2022-12-27T10:15:57.625Z,101919.34
2022-12-27T10:18:41.234Z,101860.44
2022-12-27T10:21:20.050Z,101918.41
2022-12-27T10:23:53.842Z,101879.00
2022-12-27T10:26:22.575Z,101916.72
2022-12-27T10:28:57.362Z,101927.25
2022-12-27T10:31:26.682Z,101932.88
2022-12-27T10:33:55.977Z,101950.66
2022-12-27T10:36:26.181Z,101942.84
2022-12-27T10:38:54.468Z,101898.09
2022-12-27T10:41:33.397Z,101934.88
2022-12-27T10:44:01.179Z,101936.03
2022-12-27T10:46:33.431Z,101922.00
2022-12-27T10:49:21.977Z,101944.34
2022-12-27T10:51:51.695Z,101939.34
2022-12-27T10:54:23.817Z,101952.88
2022-12-27T10:56:52.072Z,101943.78
2022-12-27T10:59:22.345Z,101940.13
2022-12-27T11:01:53.668Z,101940.00
2022-12-27T11:04:24.379Z,101946.25
2022-12-27T11:07:11.655Z,101942.59
2022-12-27T11:09:44.922Z,101952.84
2022-12-27T11:12:23.764Z,101956.00
2022-12-27T11:14:56.940Z,101965.75
2022-12-27T11:17:27.789Z,101961.81
2022-12-27T11:19:58.421Z,101963.63
2022-12-27T11:22:27.424Z,101966.06
2022-12-27T11:24:59.985Z,101970.84
2022-12-27T11:27:29.057Z,101967.00
2022-12-27T11:29:59.506Z,101971.66
2022-12-27T11:32:27.470Z,101978.75
2022-12-27T11:34:58.069Z,101970.81
2022-12-27T11:37:28.156Z,101931.81
2022-12-27T11:40:11.575Z,101969.84
2022-12-27T11:42:44.167Z,101975.63
2022-12-27T11:45:15.857Z,101968.88
2022-12-27T11:47:49.097Z,101979.28
2022-12-27T11:50:36.835Z,101963.31
2022-12-27T11:53:22.106Z,101966.75
2022-12-27T11:56:13.941Z,101968.75
2022-12-27T11:59:14.971Z,101964.25
2022-12-27T12:02:18.954Z,101959.28
2022-12-27T12:05:18.276Z,101960.03
2022-12-27T12:08:05.304Z,101962.31
2022-12-27T12:10:44.537Z,101957.16
2022-12-27T12:13:35.256Z,101969.69
2022-12-27T12:16:36.756Z,101976.06
2022-12-27T12:19:12.266Z,101987.38
2022-12-27T12:21:50.241Z,101982.91
2022-12-27T12:24:37.150Z,101992.22
2022-12-27T12:27:23.280Z,101987.75
2022-12-27T12:30:13.352Z,101985.78
2022-12-27T12:33:00.208Z,101981.50
2022-12-27T12:35:45.993Z,101983.94
2022-12-27T12:38:22.532Z,101934.94
2022-12-27T12:41:18.940Z,101997.53
2022-12-27T12:44:03.427Z,102000.69
2022-12-27T12:46:38.957Z,101998.88
2022-12-27T12:49:44.678Z,101987.41
2022-12-27T12:52:28.884Z,101996.06
2022-12-27T12:55:24.588Z,101985.03
2022-12-27T12:58:03.530Z,101990.38
2022-12-27T13:00:45.004Z,101980.97
2022-12-27T13:03:45.894Z,101979.25
2022-12-27T13:06:36.443Z,101980.31
2022-12-27T13:09:15.406Z,101928.00
2022-12-27T13:11:52.063Z,101983.81
2022-12-27T13:14:35.961Z,101955.88
2022-12-27T13:17:11.918Z,101947.81
2022-12-27T13:19:51.246Z,101968.84
2022-12-27T13:22:34.668Z,101963.31
2022-12-27T13:25:16.498Z,101960.69
2022-12-27T13:27:55.870Z,101965.06
2022-12-27T13:30:30.614Z,101961.91
2022-12-27T13:33:22.978Z,101957.66
2022-12-27T13:36:04.959Z,101955.56
2022-12-27T13:38:48.375Z,101965.09
2022-12-27T13:41:32.605Z,101962.25
2022-12-27T13:44:22.310Z,101956.75
2022-12-27T13:47:30.736Z,101970.66
2022-12-27T13:50:37.312Z,101957.00
2022-12-27T13:53:22.374Z,101966.38
2022-12-27T13:56:20.295Z,101910.44
2022-12-27T13:59:24.808Z,101960.72
2022-12-27T14:02:25.282Z,101966.13
2022-12-27T14:05:18.922Z,101955.84
2022-12-27T14:08:01.495Z,101952.53
2022-12-27T14:10:37.641Z,101948.06
2022-12-27T14:13:08.746Z,101956.88
2022-12-27T14:16:02.105Z,101865.47
2022-12-27T14:18:54.518Z,101955.88
2022-12-27T14:21:47.527Z,101955.75
2022-12-27T14:24:33.369Z,101957.78
2022-12-27T14:27:48.949Z,101948.22
2022-12-27T14:30:55.403Z,101959.31
2022-12-27T14:33:53.651Z,101948.88
2022-12-27T14:37:01.271Z,101950.78
2022-12-27T14:40:06.166Z,101958.13
2022-12-27T14:43:09.978Z,101947.13
2022-12-27T14:46:28.020Z,101954.44
2022-12-27T14:49:27.078Z,101963.22
2022-12-27T14:52:24.461Z,101961.66
2022-12-27T14:55:27.388Z,101954.72
2022-12-27T14:58:12.806Z,101959.81
2022-12-27T15:01:01.386Z,101965.63
2022-12-27T15:03:51.539Z,101964.19
2022-12-27T15:06:34.246Z,101964.41
2022-12-27T15:09:13.401Z,101969.63
2022-12-27T15:12:07.473Z,101973.13
2022-12-27T15:15:11.132Z,101972.72
2022-12-27T15:17:54.580Z,101982.03
2022-12-27T15:20:38.868Z,101971.13
2022-12-27T15:23:19.894Z,101970.09
2022-12-27T15:26:00.225Z,101974.19
2022-12-27T15:28:44.353Z,101971.13
2022-12-27T15:31:22.325Z,101967.56
2022-12-27T15:34:01.070Z,101980.09
2022-12-27T15:36:38.968Z,101971.63
2022-12-27T15:39:08.326Z,101967.31
2022-12-27T15:41:54.886Z,101983.16
2022-12-27T15:44:51.890Z,101969.91
2022-12-27T15:47:44.032Z,101969.78
2022-12-27T15:50:26.572Z,101969.03
2022-12-27T15:53:30.925Z,101972.97
2022-12-27T15:56:37.978Z,101971.47
2022-12-27T15:59:42.481Z,101965.63
2022-12-27T16:02:36.224Z,101973.38
2022-12-27T16:05:12.820Z,101969.19
2022-12-27T16:07:51.078Z,101966.47
2022-12-27T16:10:48.911Z,101964.53
2022-12-27T16:13:37.642Z,101953.28
2022-12-27T16:16:26.564Z,101947.41
2022-12-27T16:19:19.142Z,101954.25
2022-12-27T16:21:47.711Z,101957.72
2022-12-27T16:24:19.394Z,101959.81
2022-12-27T16:27:02.535Z,101948.16
2022-12-27T16:29:33.778Z,101943.28
2022-12-27T16:32:18.913Z,101947.03
2022-12-27T16:34:48.567Z,101947.94
2022-12-27T16:37:25.479Z,101953.41
2022-12-27T16:40:03.147Z,101955.81
2022-12-27T16:43:11.023Z,101949.72
2022-12-27T16:45:49.712Z,101955.91
2022-12-27T16:48:25.570Z,101953.44
2022-12-27T16:51:03.720Z,101938.38
2022-12-27T16:53:52.607Z,101932.91
2022-12-27T16:56:24.016Z,101950.81
2022-12-27T16:58:53.339Z,101951.25
2022-12-27T17:01:55.731Z,101950.69
2022-12-27T17:05:00.362Z,101961.28
2022-12-27T17:08:10.540Z,101952.03
2022-12-27T17:10:56.141Z,101959.59
2022-12-27T17:13:51.514Z,101964.28
2022-12-27T17:16:24.209Z,101965.94
2022-12-27T17:18:56.036Z,101946.97
2022-12-27T17:21:30.755Z,101962.59
2022-12-27T17:24:02.535Z,101958.47
2022-12-27T17:26:58.775Z,101964.84
2022-12-27T17:29:57.819Z,101970.75
2022-12-27T17:32:42.448Z,101965.56
2022-12-27T17:35:17.257Z,101961.22
2022-12-27T17:37:59.933Z,101963.03
2022-12-27T17:40:34.869Z,101964.28
2022-12-27T17:43:34.929Z,101945.00
2022-12-27T17:46:21.503Z,101954.16
2022-12-27T17:48:53.941Z,101949.72
2022-12-27T17:51:25.885Z,101939.63
2022-12-27T17:54:12.845Z,101952.44
2022-12-27T17:57:02.209Z,101944.84
2022-12-27T17:59:31.266Z,101935.94
2022-12-27T18:02:05.536Z,101937.50
2022-12-27T18:04:37.084Z,101920.78
2022-12-27T18:07:07.315Z,101930.06
2022-12-27T18:09:39.645Z,101931.78
2022-12-27T18:12:13.522Z,101930.50
2022-12-27T18:14:41.859Z,101922.91
2022-12-27T18:17:28.480Z,101914.63
2022-12-27T18:19:58.189Z,101917.81
2022-12-27T18:22:26.057Z,101919.06
2022-12-27T18:24:53.654Z,101922.38
2022-12-27T18:27:25.368Z,101912.81
2022-12-27T18:29:53.074Z,101912.41
2022-12-27T18:32:21.123Z,101920.66
2022-12-27T18:34:54.530Z,101910.81
2022-12-27T18:37:25.540Z,101908.16
2022-12-27T18:39:56.188Z,101903.63
2022-12-27T18:42:30.773Z,101896.06
2022-12-27T18:45:03.077Z,101892.75
2022-12-27T18:47:31.070Z,101881.34
2022-12-27T18:50:00.801Z,101880.94
2022-12-27T18:52:34.884Z,101881.63
2022-12-27T18:55:17.766Z,101870.38
2022-12-27T18:57:45.928Z,101863.78
2022-12-27T19:00:21.550Z,101856.97
2022-12-27T19:02:51.048Z,101873.69
2022-12-27T19:05:30.571Z,101875.28
2022-12-27T19:08:09.795Z,101867.25
2022-12-27T19:10:40.181Z,101865.84
2022-12-27T19:13:17.679Z,101865.44
2022-12-27T19:15:45.455Z,101859.38
2022-12-27T19:18:22.998Z,101869.31
2022-12-27T19:20:55.435Z,101863.50
2022-12-27T19:23:31.173Z,101863.81
2022-12-27T19:26:05.517Z,101874.94
2022-12-27T19:28:34.836Z,101865.56
2022-12-27T19:31:16.141Z,101847.44
2022-12-27T19:33:46.071Z,101845.41
2022-12-27T19:36:14.559Z,101842.25
2022-12-27T19:38:47.871Z,101842.19
2022-12-27T19:41:15.946Z,101836.91
2022-12-27T19:43:46.722Z,101832.13
2022-12-27T19:46:15.880Z,101832.72
2022-12-27T19:48:43.868Z,101837.50
2022-12-27T19:51:16.710Z,101830.38
2022-12-27T19:53:57.316Z,101833.91
2022-12-27T19:56:25.959Z,101831.75
2022-12-27T19:58:53.749Z,101833.97
2022-12-27T20:01:21.479Z,101817.25
2022-12-27T20:03:49.149Z,101814.53
2022-12-27T20:06:23.990Z,101805.00
2022-12-27T20:08:55.615Z,101809.59
2022-12-27T20:11:24.234Z,101809.47
2022-12-27T20:13:51.915Z,101815.47
2022-12-27T20:16:21.057Z,101798.63
2022-12-27T20:18:48.854Z,101801.88
2022-12-27T20:21:19.017Z,101806.50
2022-12-27T20:23:47.446Z,101800.94
2022-12-27T20:26:20.555Z,101788.44
2022-12-27T20:28:48.633Z,101786.50
2022-12-27T20:31:19.027Z,101782.69
2022-12-27T20:33:46.982Z,101777.66
2022-12-27T20:36:14.576Z,101777.81
2022-12-27T20:38:42.148Z,101783.81
2022-12-27T20:41:11.585Z,101777.81
2022-12-27T20:43:41.541Z,101765.63
2022-12-27T20:46:11.689Z,101769.16
2022-12-27T20:48:40.322Z,101785.34
2022-12-27T20:51:08.570Z,101783.69
2022-12-27T20:53:36.859Z,101775.16
2022-12-27T20:56:05.845Z,101773.47
2022-12-27T20:58:34.517Z,101779.59
2022-12-27T21:01:08.619Z,101773.25
2022-12-27T21:03:37.052Z,101762.38
2022-12-27T21:06:09.976Z,101754.78
2022-12-27T21:08:45.406Z,101767.38
2022-12-27T21:11:17.024Z,101762.03
2022-12-27T21:13:45.390Z,101751.91
2022-12-27T21:16:16.603Z,101750.16
2022-12-27T21:18:44.227Z,101745.56
2022-12-27T21:21:15.019Z,101733.59
2022-12-27T21:23:43.441Z,101738.72
2022-12-27T21:26:12.899Z,101750.66
2022-12-27T21:28:40.661Z,101732.22
2022-12-27T21:31:10.309Z,101742.06
2022-12-27T21:33:39.393Z,101739.25
2022-12-27T21:36:09.153Z,101738.31
2022-12-27T21:38:36.836Z,101733.41
2022-12-27T21:41:06.771Z,101727.88
2022-12-27T21:43:35.259Z,101721.84
2022-12-27T21:46:07.333Z,101714.75
2022-12-27T21:48:36.011Z,101722.34
2022-12-27T21:51:09.856Z,101713.88
2022-12-27T21:53:38.029Z,101698.78
2022-12-27T21:56:06.707Z,101703.41
2022-12-27T21:58:36.658Z,101692.25
2022-12-27T22:01:08.676Z,101675.78
2022-12-27T22:03:38.748Z,101678.66
2022-12-27T22:06:15.745Z,101674.69
2022-12-27T22:08:44.625Z,101678.69
2022-12-27T22:11:12.850Z,101671.75
2022-12-27T22:13:40.932Z,101674.53
2022-12-27T22:16:15.658Z,101673.69
2022-12-27T22:18:45.176Z,101668.75
2022-12-27T22:21:15.783Z,101660.78
2022-12-27T22:23:45.568Z,101665.22
2022-12-27T22:26:14.979Z,101673.28
2022-12-27T22:28:43.012Z,101655.25
2022-12-27T22:31:12.091Z,101646.59
2022-12-27T22:33:40.003Z,101624.22
2022-12-27T22:36:10.120Z,101627.91
2022-12-27T22:38:40.622Z,101614.91
2022-12-27T22:41:09.790Z,101619.06
2022-12-27T22:43:37.418Z,101623.75
2022-12-27T22:46:07.509Z,101625.63
2022-12-27T22:48:35.306Z,101618.53
2022-12-27T22:51:08.014Z,101618.84
2022-12-27T22:53:35.720Z,101609.13
2022-12-27T22:56:04.802Z,101592.63
2022-12-27T22:58:32.705Z,101590.34
2022-12-27T23:01:00.655Z,101601.63
2022-12-27T23:03:28.240Z,101592.34
2022-12-27T23:05:59.880Z,101589.72
2022-12-27T23:08:27.765Z,101578.38
2022-12-27T23:10:55.761Z,101587.81
2022-12-27T23:13:26.293Z,101589.75
2022-12-27T23:15:57.852Z,101574.03
2022-12-27T23:18:25.775Z,101574.09
2022-12-27T23:21:21.456Z,101561.41
2022-12-27T23:23:42.565Z,101561.19
2022-12-27T23:26:13.642Z,101558.50
2022-12-27T23:28:44.547Z,101570.03
2022-12-27T23:31:12.833Z,101560.56
2022-12-27T23:33:41.697Z,101546.72
2022-12-27T23:36:10.517Z,101534.75
2022-12-27T23:38:38.171Z,101524.38
2022-12-27T23:41:07.862Z,101517.47
2022-12-27T23:43:55.257Z,101533.03
2022-12-27T23:46:28.136Z,101508.75
2022-12-27T23:48:56.831Z,101509.59
2022-12-27T23:51:25.182Z,101512.66
2022-12-27T23:53:53.291Z,101475.47
2022-12-27T23:56:23.782Z,101502.19
2022-12-27T23:58:53.029Z,101490.88
